sensor_id;sensor_type;location;lat;lon;timestamp;P1;durP1;ratioP1;P2;durP2;ratioP2
50906;SDS011;36882;27.680;85.304;2022-10-14T00:00:08;18.65;;;6.70;;
50906;SDS011;36882;27.680;85.304;2022-10-14T00:02:39;12.25;;;5.93;;
50906;SDS011;36882;27.680;85.304;2022-10-14T00:05:09;19.08;;;6.65;;
50906;SDS011;36882;27.680;85.304;2022-10-14T00:07:39;9.75;;;7.03;;
50906;SDS011;36882;27.680;85.304;2022-10-14T00:10:08;14.07;;;8.15;;
50906;SDS011;36882;27.680;85.304;2022-10-14T00:12:38;13.68;;;7.55;;
50906;SDS011;36882;27.680;85.304;2022-10-14T00:15:08;15.52;;;7.80;;
50906;SDS011;36882;27.680;85.304;2022-10-14T00:17:38;14.20;;;7.75;;
50906;SDS011;36882;27.680;85.304;2022-10-14T00:20:08;17.85;;;9.00;;
50906;SDS011;36882;27.680;85.304;2022-10-14T00:22:38;20.65;;;8.13;;
50906;SDS011;36882;27.680;85.304;2022-10-14T00:25:08;14.43;;;7.57;;
50906;SDS011;36882;27.680;85.304;2022-10-14T00:27:38;21.02;;;7.82;;
50906;SDS011;36882;27.680;85.304;2022-10-14T00:30:08;14.52;;;10.07;;
50906;SDS011;36882;27.680;85.304;2022-10-14T00:32:38;14.05;;;10.23;;
50906;SDS011;36882;27.680;85.304;2022-10-14T00:35:08;18.08;;;9.88;;
50906;SDS011;36882;27.680;85.304;2022-10-14T00:37:38;16.08;;;9.75;;
50906;SDS011;36882;27.680;85.304;2022-10-14T00:40:08;16.33;;;9.43;;
50906;SDS011;36882;27.680;85.304;2022-10-14T00:42:39;17.02;;;8.70;;
50906;SDS011;36882;27.680;85.304;2022-10-14T00:45:12;22.20;;;9.95;;
50906;SDS011;36882;27.680;85.304;2022-10-14T00:47:44;16.60;;;9.65;;
50906;SDS011;36882;27.680;85.304;2022-10-14T00:50:15;17.85;;;9.52;;
50906;SDS011;36882;27.680;85.304;2022-10-14T00:52:47;13.23;;;9.25;;
50906;SDS011;36882;27.680;85.304;2022-10-14T00:55:18;22.38;;;10.13;;
50906;SDS011;36882;27.680;85.304;2022-10-14T00:57:48;20.63;;;9.75;;
50906;SDS011;36882;27.680;85.304;2022-10-14T01:00:18;18.90;;;8.30;;
50906;SDS011;36882;27.680;85.304;2022-10-14T01:02:49;14.52;;;10.00;;
50906;SDS011;36882;27.680;85.304;2022-10-14T01:05:19;21.70;;;10.40;;
50906;SDS011;36882;27.680;85.304;2022-10-14T01:07:57;18.88;;;9.20;;
50906;SDS011;36882;27.680;85.304;2022-10-14T01:10:40;18.75;;;9.13;;
50906;SDS011;36882;27.680;85.304;2022-10-14T01:13:34;17.85;;;10.88;;
50906;SDS011;36882;27.680;85.304;2022-10-14T01:16:13;25.08;;;11.10;;
50906;SDS011;36882;27.680;85.304;2022-10-14T01:19:04;20.45;;;10.23;;
50906;SDS011;36882;27.680;85.304;2022-10-14T01:22:03;21.70;;;11.55;;
50906;SDS011;36882;27.680;85.304;2022-10-14T01:25:01;23.40;;;12.90;;
50906;SDS011;36882;27.680;85.304;2022-10-14T01:30:49;29.30;;;16.95;;
50906;SDS011;36882;27.680;85.304;2022-10-14T01:33:36;32.50;;;16.67;;
50906;SDS011;36882;27.680;85.304;2022-10-14T01:39:09;31.17;;;18.92;;
50906;SDS011;36882;27.680;85.304;2022-10-14T01:41:50;38.10;;;19.30;;
50906;SDS011;36882;27.680;85.304;2022-10-14T01:44:28;23.08;;;14.50;;
50906;SDS011;36882;27.680;85.304;2022-10-14T01:47:00;26.80;;;17.25;;
50906;SDS011;36882;27.680;85.304;2022-10-14T01:49:33;26.50;;;16.58;;
50906;SDS011;36882;27.680;85.304;2022-10-14T01:52:12;19.52;;;14.88;;
50906;SDS011;36882;27.680;85.304;2022-10-14T01:54:50;23.00;;;17.60;;
50906;SDS011;36882;27.680;85.304;2022-10-14T01:57:25;27.52;;;16.02;;
50906;SDS011;36882;27.680;85.304;2022-10-14T01:59:58;33.13;;;15.77;;
50906;SDS011;36882;27.680;85.304;2022-10-14T02:02:29;24.83;;;15.52;;
50906;SDS011;36882;27.680;85.304;2022-10-14T02:05:04;36.15;;;16.02;;
50906;SDS011;36882;27.680;85.304;2022-10-14T02:07:42;31.70;;;16.00;;
50906;SDS011;36882;27.680;85.304;2022-10-14T02:11:15;25.60;;;13.80;;
50906;SDS011;36882;27.680;85.304;2022-10-14T02:13:29;29.17;;;14.75;;
50906;SDS011;36882;27.680;85.304;2022-10-14T02:19:15;21.63;;;15.55;;
50906;SDS011;36882;27.680;85.304;2022-10-14T02:22:09;27.92;;;16.48;;
50906;SDS011;36882;27.680;85.304;2022-10-14T02:25:03;21.65;;;15.45;;
50906;SDS011;36882;27.680;85.304;2022-10-14T02:30:12;23.58;;;14.68;;
50906;SDS011;36882;27.680;85.304;2022-10-14T02:32:44;24.73;;;16.58;;
50906;SDS011;36882;27.680;85.304;2022-10-14T02:35:15;19.13;;;12.52;;
50906;SDS011;36882;27.680;85.304;2022-10-14T02:37:48;14.93;;;10.25;;
50906;SDS011;36882;27.680;85.304;2022-10-14T02:40:22;19.30;;;10.73;;
50906;SDS011;36882;27.680;85.304;2022-10-14T02:42:59;19.38;;;11.45;;
50906;SDS011;36882;27.680;85.304;2022-10-14T02:45:30;17.42;;;11.93;;
50906;SDS011;36882;27.680;85.304;2022-10-14T02:48:00;15.23;;;12.73;;
50906;SDS011;36882;27.680;85.304;2022-10-14T02:50:30;21.42;;;14.25;;
50906;SDS011;36882;27.680;85.304;2022-10-14T02:53:00;24.08;;;14.38;;
50906;SDS011;36882;27.680;85.304;2022-10-14T02:55:30;20.67;;;14.23;;
50906;SDS011;36882;27.680;85.304;2022-10-14T03:00:30;18.38;;;12.07;;
50906;SDS011;36882;27.680;85.304;2022-10-14T03:03:00;18.17;;;13.50;;
50906;SDS011;36882;27.680;85.304;2022-10-14T03:05:30;23.83;;;15.15;;
50906;SDS011;36882;27.680;85.304;2022-10-14T03:10:29;19.40;;;12.57;;
50906;SDS011;36882;27.680;85.304;2022-10-14T03:15:28;23.87;;;14.30;;
50906;SDS011;36882;27.680;85.304;2022-10-14T03:17:58;17.65;;;12.20;;
50906;SDS011;36882;27.680;85.304;2022-10-14T03:20:29;21.17;;;14.50;;
50906;SDS011;36882;27.680;85.304;2022-10-14T03:22:59;20.80;;;13.80;;
50906;SDS011;36882;27.680;85.304;2022-10-14T03:25:29;19.42;;;13.85;;
50906;SDS011;36882;27.680;85.304;2022-10-14T03:30:28;21.33;;;15.43;;
50906;SDS011;36882;27.680;85.304;2022-10-14T03:32:58;18.60;;;12.85;;
50906;SDS011;36882;27.680;85.304;2022-10-14T03:37:57;19.63;;;14.63;;
50906;SDS011;36882;27.680;85.304;2022-10-14T03:40:30;17.10;;;12.98;;
50906;SDS011;36882;27.680;85.304;2022-10-14T03:45:29;10.80;;;7.70;;
50906;SDS011;36882;27.680;85.304;2022-10-14T03:50:28;13.38;;;7.25;;
50906;SDS011;36882;27.680;85.304;2022-10-14T03:52:58;12.07;;;8.95;;
50906;SDS011;36882;27.680;85.304;2022-10-14T03:55:28;17.92;;;10.82;;
50906;SDS011;36882;27.680;85.304;2022-10-14T04:00:28;20.95;;;15.30;;
50906;SDS011;36882;27.680;85.304;2022-10-14T04:02:58;25.98;;;17.92;;
50906;SDS011;36882;27.680;85.304;2022-10-14T04:05:27;22.80;;;17.95;;
50906;SDS011;36882;27.680;85.304;2022-10-14T04:08:01;24.25;;;15.77;;
50906;SDS011;36882;27.680;85.304;2022-10-14T04:10:31;25.10;;;15.77;;
50906;SDS011;36882;27.680;85.304;2022-10-14T04:13:01;28.42;;;15.48;;
50906;SDS011;36882;27.680;85.304;2022-10-14T04:15:33;24.38;;;19.17;;
50906;SDS011;36882;27.680;85.304;2022-10-14T04:18:04;25.25;;;17.25;;
50906;SDS011;36882;27.680;85.304;2022-10-14T04:20:34;22.40;;;17.27;;
50906;SDS011;36882;27.680;85.304;2022-10-14T04:23:05;31.98;;;18.83;;
50906;SDS011;36882;27.680;85.304;2022-10-14T04:25:36;19.70;;;15.15;;
50906;SDS011;36882;27.680;85.304;2022-10-14T04:28:06;21.10;;;14.60;;
50906;SDS011;36882;27.680;85.304;2022-10-14T04:30:37;16.63;;;13.45;;
50906;SDS011;36882;27.680;85.304;2022-10-14T04:35:36;25.25;;;18.33;;
50906;SDS011;36882;27.680;85.304;2022-10-14T04:38:06;28.75;;;18.08;;
50906;SDS011;36882;27.680;85.304;2022-10-14T04:40:36;24.83;;;17.27;;
50906;SDS011;36882;27.680;85.304;2022-10-14T04:45:35;24.50;;;17.40;;
50906;SDS011;36882;27.680;85.304;2022-10-14T04:50:35;22.80;;;15.93;;
50906;SDS011;36882;27.680;85.304;2022-10-14T04:55:39;23.20;;;14.07;;
50906;SDS011;36882;27.680;85.304;2022-10-14T05:00:38;26.05;;;14.35;;
50906;SDS011;36882;27.680;85.304;2022-10-14T05:03:09;34.10;;;14.35;;
50906;SDS011;36882;27.680;85.304;2022-10-14T05:05:39;22.13;;;13.30;;
50906;SDS011;36882;27.680;85.304;2022-10-14T05:08:09;22.70;;;14.48;;
50906;SDS011;36882;27.680;85.304;2022-10-14T05:10:39;22.98;;;14.32;;
50906;SDS011;36882;27.680;85.304;2022-10-14T05:15:38;22.13;;;12.02;;
50906;SDS011;36882;27.680;85.304;2022-10-14T05:18:10;20.02;;;11.48;;
50906;SDS011;36882;27.680;85.304;2022-10-14T05:20:40;17.55;;;11.88;;
50906;SDS011;36882;27.680;85.304;2022-10-14T05:23:11;14.95;;;10.30;;
50906;SDS011;36882;27.680;85.304;2022-10-14T05:25:41;18.80;;;10.48;;
50906;SDS011;36882;27.680;85.304;2022-10-14T05:28:11;17.17;;;10.27;;
50906;SDS011;36882;27.680;85.304;2022-10-14T05:30:43;16.67;;;10.75;;
50906;SDS011;36882;27.680;85.304;2022-10-14T05:33:14;15.32;;;9.10;;
50906;SDS011;36882;27.680;85.304;2022-10-14T05:35:45;14.20;;;8.40;;
50906;SDS011;36882;27.680;85.304;2022-10-14T05:38:31;9.38;;;7.65;;
50906;SDS011;36882;27.680;85.304;2022-10-14T05:41:02;11.32;;;7.03;;
50906;SDS011;36882;27.680;85.304;2022-10-14T05:43:32;18.77;;;7.97;;
50906;SDS011;36882;27.680;85.304;2022-10-14T05:46:03;14.18;;;6.63;;
50906;SDS011;36882;27.680;85.304;2022-10-14T05:48:33;10.65;;;7.30;;
50906;SDS011;36882;27.680;85.304;2022-10-14T05:51:04;8.45;;;6.32;;
50906;SDS011;36882;27.680;85.304;2022-10-14T05:53:35;12.35;;;6.40;;
50906;SDS011;36882;27.680;85.304;2022-10-14T05:56:07;14.30;;;5.57;;
50906;SDS011;36882;27.680;85.304;2022-10-14T05:58:39;12.18;;;5.78;;
50906;SDS011;36882;27.680;85.304;2022-10-14T06:01:09;8.10;;;6.22;;
50906;SDS011;36882;27.680;85.304;2022-10-14T06:03:40;12.23;;;6.15;;
50906;SDS011;36882;27.680;85.304;2022-10-14T06:06:11;9.15;;;5.82;;
50906;SDS011;36882;27.680;85.304;2022-10-14T06:08:42;12.18;;;5.35;;
50906;SDS011;36882;27.680;85.304;2022-10-14T06:11:13;9.05;;;5.25;;
50906;SDS011;36882;27.680;85.304;2022-10-14T06:13:43;9.43;;;5.35;;
50906;SDS011;36882;27.680;85.304;2022-10-14T06:16:14;8.02;;;4.28;;
50906;SDS011;36882;27.680;85.304;2022-10-14T06:18:44;7.57;;;3.70;;
50906;SDS011;36882;27.680;85.304;2022-10-14T06:21:20;11.52;;;4.00;;
50906;SDS011;36882;27.680;85.304;2022-10-14T06:23:51;9.65;;;4.05;;
50906;SDS011;36882;27.680;85.304;2022-10-14T06:26:21;10.40;;;3.80;;
50906;SDS011;36882;27.680;85.304;2022-10-14T06:28:51;7.78;;;3.92;;
50906;SDS011;36882;27.680;85.304;2022-10-14T06:31:22;8.55;;;3.78;;
50906;SDS011;36882;27.680;85.304;2022-10-14T06:33:58;6.03;;;3.58;;
50906;SDS011;36882;27.680;85.304;2022-10-14T06:36:28;9.52;;;3.72;;
50906;SDS011;36882;27.680;85.304;2022-10-14T06:39:00;5.25;;;4.00;;
50906;SDS011;36882;27.680;85.304;2022-10-14T06:41:31;8.52;;;4.07;;
50906;SDS011;36882;27.680;85.304;2022-10-14T06:44:02;5.93;;;3.50;;
50906;SDS011;36882;27.680;85.304;2022-10-14T06:46:32;6.15;;;3.15;;
50906;SDS011;36882;27.680;85.304;2022-10-14T06:49:03;4.82;;;3.55;;
50906;SDS011;36882;27.680;85.304;2022-10-14T06:51:33;7.13;;;3.30;;
50906;SDS011;36882;27.680;85.304;2022-10-14T06:54:05;8.80;;;3.80;;
50906;SDS011;36882;27.680;85.304;2022-10-14T06:56:39;5.55;;;3.88;;
50906;SDS011;36882;27.680;85.304;2022-10-14T06:59:09;6.72;;;4.00;;
50906;SDS011;36882;27.680;85.304;2022-10-14T07:01:40;11.93;;;4.43;;
50906;SDS011;36882;27.680;85.304;2022-10-14T07:04:10;5.07;;;3.40;;
50906;SDS011;36882;27.680;85.304;2022-10-14T07:06:41;6.25;;;3.42;;
50906;SDS011;36882;27.680;85.304;2022-10-14T07:09:11;5.63;;;3.40;;
50906;SDS011;36882;27.680;85.304;2022-10-14T07:11:41;7.78;;;3.50;;
50906;SDS011;36882;27.680;85.304;2022-10-14T07:14:12;9.05;;;3.80;;
50906;SDS011;36882;27.680;85.304;2022-10-14T07:16:42;9.20;;;3.45;;
50906;SDS011;36882;27.680;85.304;2022-10-14T07:19:13;8.70;;;3.80;;
50906;SDS011;36882;27.680;85.304;2022-10-14T07:21:43;7.25;;;4.55;;
50906;SDS011;36882;27.680;85.304;2022-10-14T07:24:15;9.35;;;4.47;;
50906;SDS011;36882;27.680;85.304;2022-10-14T07:26:45;9.85;;;3.63;;
50906;SDS011;36882;27.680;85.304;2022-10-14T07:29:16;9.45;;;3.50;;
50906;SDS011;36882;27.680;85.304;2022-10-14T07:31:46;5.93;;;4.03;;
50906;SDS011;36882;27.680;85.304;2022-10-14T07:34:17;8.13;;;3.65;;
50906;SDS011;36882;27.680;85.304;2022-10-14T07:36:47;7.03;;;3.55;;
50906;SDS011;36882;27.680;85.304;2022-10-14T07:39:17;10.40;;;3.28;;
50906;SDS011;36882;27.680;85.304;2022-10-14T07:41:49;9.43;;;4.07;;
50906;SDS011;36882;27.680;85.304;2022-10-14T07:44:19;10.88;;;5.78;;
50906;SDS011;36882;27.680;85.304;2022-10-14T07:46:53;19.23;;;8.63;;
50906;SDS011;36882;27.680;85.304;2022-10-14T07:49:23;11.05;;;5.82;;
50906;SDS011;36882;27.680;85.304;2022-10-14T07:51:54;13.30;;;7.88;;
50906;SDS011;36882;27.680;85.304;2022-10-14T07:54:25;10.52;;;5.07;;
50906;SDS011;36882;27.680;85.304;2022-10-14T07:57:00;7.78;;;4.43;;
50906;SDS011;36882;27.680;85.304;2022-10-14T07:59:30;11.05;;;5.00;;
50906;SDS011;36882;27.680;85.304;2022-10-14T08:02:01;8.85;;;5.72;;
50906;SDS011;36882;27.680;85.304;2022-10-14T08:04:33;7.25;;;4.18;;
50906;SDS011;36882;27.680;85.304;2022-10-14T08:07:04;8.13;;;3.85;;
50906;SDS011;36882;27.680;85.304;2022-10-14T08:09:34;9.68;;;5.28;;
50906;SDS011;36882;27.680;85.304;2022-10-14T08:12:05;8.90;;;5.57;;
50906;SDS011;36882;27.680;85.304;2022-10-14T08:14:36;12.77;;;8.07;;
50906;SDS011;36882;27.680;85.304;2022-10-14T08:17:06;14.48;;;5.70;;
50906;SDS011;36882;27.680;85.304;2022-10-14T08:19:36;9.77;;;5.53;;
50906;SDS011;36882;27.680;85.304;2022-10-14T08:22:07;12.73;;;7.50;;
50906;SDS011;36882;27.680;85.304;2022-10-14T08:24:38;15.40;;;8.13;;
50906;SDS011;36882;27.680;85.304;2022-10-14T08:27:09;12.65;;;7.80;;
50906;SDS011;36882;27.680;85.304;2022-10-14T08:29:39;10.27;;;7.35;;
50906;SDS011;36882;27.680;85.304;2022-10-14T08:32:10;15.05;;;6.75;;
50906;SDS011;36882;27.680;85.304;2022-10-14T08:34:41;16.08;;;7.22;;
50906;SDS011;36882;27.680;85.304;2022-10-14T08:37:11;13.75;;;6.97;;
50906;SDS011;36882;27.680;85.304;2022-10-14T08:39:41;15.88;;;7.22;;
50906;SDS011;36882;27.680;85.304;2022-10-14T08:42:20;11.98;;;7.28;;
50906;SDS011;36882;27.680;85.304;2022-10-14T08:45:18;16.52;;;7.38;;
50906;SDS011;36882;27.680;85.304;2022-10-14T08:47:58;15.48;;;7.20;;
50906;SDS011;36882;27.680;85.304;2022-10-14T08:50:39;10.43;;;7.07;;
50906;SDS011;36882;27.680;85.304;2022-10-14T08:53:16;12.85;;;7.35;;
50906;SDS011;36882;27.680;85.304;2022-10-14T08:55:52;16.35;;;8.00;;
50906;SDS011;36882;27.680;85.304;2022-10-14T08:58:43;14.63;;;7.40;;
50906;SDS011;36882;27.680;85.304;2022-10-14T09:04:12;18.27;;;6.97;;
50906;SDS011;36882;27.680;85.304;2022-10-14T09:06:45;13.20;;;7.05;;
50906;SDS011;36882;27.680;85.304;2022-10-14T09:09:19;16.70;;;7.10;;
50906;SDS011;36882;27.680;85.304;2022-10-14T09:11:57;14.02;;;7.18;;
50906;SDS011;36882;27.680;85.304;2022-10-14T09:14:33;15.15;;;6.35;;
50906;SDS011;36882;27.680;85.304;2022-10-14T09:17:11;14.93;;;6.00;;
50906;SDS011;36882;27.680;85.304;2022-10-14T09:19:49;13.43;;;7.22;;
50906;SDS011;36882;27.680;85.304;2022-10-14T09:22:41;15.30;;;6.95;;
50906;SDS011;36882;27.680;85.304;2022-10-14T09:25:14;11.23;;;7.47;;
50906;SDS011;36882;27.680;85.304;2022-10-14T09:27:45;12.70;;;7.15;;
50906;SDS011;36882;27.680;85.304;2022-10-14T09:30:15;11.32;;;6.28;;
50906;SDS011;36882;27.680;85.304;2022-10-14T09:32:48;14.77;;;7.18;;
50906;SDS011;36882;27.680;85.304;2022-10-14T09:35:27;8.63;;;6.03;;
50906;SDS011;36882;27.680;85.304;2022-10-14T09:38:03;16.58;;;7.80;;
50906;SDS011;36882;27.680;85.304;2022-10-14T09:40:34;16.52;;;6.55;;
50906;SDS011;36882;27.680;85.304;2022-10-14T09:43:15;11.40;;;6.80;;
50906;SDS011;36882;27.680;85.304;2022-10-14T09:51:30;10.13;;;6.47;;
50906;SDS011;36882;27.680;85.304;2022-10-14T09:54:02;23.25;;;6.18;;
50906;SDS011;36882;27.680;85.304;2022-10-14T09:56:38;13.25;;;6.43;;
50906;SDS011;36882;27.680;85.304;2022-10-14T09:59:18;15.57;;;6.53;;
50906;SDS011;36882;27.680;85.304;2022-10-14T10:01:52;14.00;;;6.45;;
50906;SDS011;36882;27.680;85.304;2022-10-14T10:04:35;13.32;;;7.25;;
50906;SDS011;36882;27.680;85.304;2022-10-14T10:07:23;15.20;;;6.83;;
50906;SDS011;36882;27.680;85.304;2022-10-14T10:09:58;8.43;;;6.22;;
50906;SDS011;36882;27.680;85.304;2022-10-14T10:12:33;17.95;;;6.50;;
50906;SDS011;36882;27.680;85.304;2022-10-14T10:15:04;14.00;;;6.70;;
50906;SDS011;36882;27.680;85.304;2022-10-14T10:17:37;10.30;;;6.72;;
50906;SDS011;36882;27.680;85.304;2022-10-14T10:20:20;17.23;;;6.32;;
50906;SDS011;36882;27.680;85.304;2022-10-14T10:25:52;15.85;;;5.70;;
50906;SDS011;36882;27.680;85.304;2022-10-14T10:28:25;10.02;;;6.25;;
50906;SDS011;36882;27.680;85.304;2022-10-14T10:33:51;16.75;;;6.95;;
50906;SDS011;36882;27.680;85.304;2022-10-14T10:36:43;16.23;;;5.95;;
50906;SDS011;36882;27.680;85.304;2022-10-14T10:39:33;13.27;;;6.00;;
50906;SDS011;36882;27.680;85.304;2022-10-14T10:42:26;11.02;;;6.80;;
50906;SDS011;36882;27.680;85.304;2022-10-14T10:48:11;22.27;;;7.47;;
50906;SDS011;36882;27.680;85.304;2022-10-14T10:50:54;11.95;;;8.02;;
50906;SDS011;36882;27.680;85.304;2022-10-14T10:53:39;13.53;;;7.27;;
50906;SDS011;36882;27.680;85.304;2022-10-14T10:56:40;17.55;;;8.18;;
50906;SDS011;36882;27.680;85.304;2022-10-14T11:05:25;21.30;;;10.15;;
50906;SDS011;36882;27.680;85.304;2022-10-14T11:08:26;14.60;;;9.80;;
50906;SDS011;36882;27.680;85.304;2022-10-14T11:14:36;15.43;;;8.10;;
50906;SDS011;36882;27.680;85.304;2022-10-14T11:17:25;13.55;;;9.00;;
50906;SDS011;36882;27.680;85.304;2022-10-14T11:20:24;10.63;;;7.72;;
50906;SDS011;36882;27.680;85.304;2022-10-14T11:26:19;14.05;;;9.70;;
50906;SDS011;36882;27.680;85.304;2022-10-14T11:29:18;13.32;;;8.63;;
50906;SDS011;36882;27.680;85.304;2022-10-14T11:38:28;15.07;;;8.98;;
50906;SDS011;36882;27.680;85.304;2022-10-14T11:41:09;26.38;;;12.13;;
50906;SDS011;36882;27.680;85.304;2022-10-14T11:44:06;18.15;;;11.15;;
50906;SDS011;36882;27.680;85.304;2022-10-14T11:46:58;22.63;;;14.82;;
50906;SDS011;36882;27.680;85.304;2022-10-14T11:49:36;29.13;;;15.13;;
50906;SDS011;36882;27.680;85.304;2022-10-14T11:52:27;21.15;;;11.30;;
50906;SDS011;36882;27.680;85.304;2022-10-14T11:55:03;19.33;;;9.80;;
50906;SDS011;36882;27.680;85.304;2022-10-14T11:57:50;29.27;;;10.60;;
50906;SDS011;36882;27.680;85.304;2022-10-14T12:03:28;24.98;;;10.52;;
50906;SDS011;36882;27.680;85.304;2022-10-14T12:06:24;16.38;;;10.32;;
50906;SDS011;36882;27.680;85.304;2022-10-14T12:09:04;19.92;;;11.43;;
50906;SDS011;36882;27.680;85.304;2022-10-14T12:11:49;17.77;;;10.45;;
50906;SDS011;36882;27.680;85.304;2022-10-14T12:14:29;16.25;;;9.27;;
50906;SDS011;36882;27.680;85.304;2022-10-14T12:17:19;13.35;;;8.88;;
50906;SDS011;36882;27.680;85.304;2022-10-14T12:23:23;18.60;;;11.27;;
50906;SDS011;36882;27.680;85.304;2022-10-14T12:29:09;26.38;;;13.13;;
50906;SDS011;36882;27.680;85.304;2022-10-14T12:34:38;16.45;;;11.93;;
50906;SDS011;36882;27.680;85.304;2022-10-14T12:42:57;24.92;;;10.88;;
50906;SDS011;36882;27.680;85.304;2022-10-14T12:45:32;21.80;;;11.02;;
50906;SDS011;36882;27.680;85.304;2022-10-14T12:48:05;20.42;;;12.20;;
50906;SDS011;36882;27.680;85.304;2022-10-14T12:50:46;27.63;;;13.48;;
50906;SDS011;36882;27.680;85.304;2022-10-14T12:53:21;24.35;;;12.40;;
50906;SDS011;36882;27.680;85.304;2022-10-14T12:55:57;19.42;;;12.70;;
50906;SDS011;36882;27.680;85.304;2022-10-14T12:58:34;22.35;;;13.18;;
50906;SDS011;36882;27.680;85.304;2022-10-14T13:01:17;23.50;;;11.35;;
50906;SDS011;36882;27.680;85.304;2022-10-14T13:03:52;23.48;;;11.80;;
50906;SDS011;36882;27.680;85.304;2022-10-14T13:06:33;24.42;;;12.45;;
50906;SDS011;36882;27.680;85.304;2022-10-14T13:12:37;17.75;;;10.10;;
50906;SDS011;36882;27.680;85.304;2022-10-14T13:15:36;19.65;;;10.88;;
50906;SDS011;36882;27.680;85.304;2022-10-14T13:18:33;23.63;;;10.98;;
50906;SDS011;36882;27.680;85.304;2022-10-14T13:24:29;32.28;;;11.88;;
50906;SDS011;36882;27.680;85.304;2022-10-14T13:27:06;22.77;;;12.23;;
50906;SDS011;36882;27.680;85.304;2022-10-14T13:30:12;17.83;;;11.48;;
50906;SDS011;36882;27.680;85.304;2022-10-14T13:32:49;22.00;;;11.88;;
50906;SDS011;36882;27.680;85.304;2022-10-14T13:35:36;22.58;;;15.05;;
50906;SDS011;36882;27.680;85.304;2022-10-14T13:38:17;27.30;;;14.45;;
50906;SDS011;36882;27.680;85.304;2022-10-14T13:40:52;30.10;;;16.15;;
50906;SDS011;36882;27.680;85.304;2022-10-14T13:43:34;27.98;;;16.58;;
50906;SDS011;36882;27.680;85.304;2022-10-14T13:46:14;23.60;;;16.50;;
50906;SDS011;36882;27.680;85.304;2022-10-14T13:48:50;32.25;;;15.18;;
50906;SDS011;36882;27.680;85.304;2022-10-14T13:51:27;33.38;;;18.65;;
50906;SDS011;36882;27.680;85.304;2022-10-14T13:54:19;26.40;;;15.95;;
50906;SDS011;36882;27.680;85.304;2022-10-14T13:57:21;28.08;;;17.75;;
50906;SDS011;36882;27.680;85.304;2022-10-14T14:00:02;36.72;;;18.67;;
50906;SDS011;36882;27.680;85.304;2022-10-14T14:03:19;30.45;;;17.70;;
50906;SDS011;36882;27.680;85.304;2022-10-14T14:05:53;27.65;;;15.93;;
50906;SDS011;36882;27.680;85.304;2022-10-14T14:08:27;24.48;;;17.25;;
50906;SDS011;36882;27.680;85.304;2022-10-14T14:11:06;30.33;;;20.13;;
50906;SDS011;36882;27.680;85.304;2022-10-14T14:13:46;29.30;;;18.65;;
50906;SDS011;36882;27.680;85.304;2022-10-14T14:16:28;22.80;;;15.40;;
50906;SDS011;36882;27.680;85.304;2022-10-14T14:19:03;32.33;;;15.10;;
50906;SDS011;36882;27.680;85.304;2022-10-14T14:21:35;32.60;;;17.13;;
50906;SDS011;36882;27.680;85.304;2022-10-14T14:24:13;24.67;;;16.73;;
50906;SDS011;36882;27.680;85.304;2022-10-14T14:26:52;30.20;;;17.75;;
50906;SDS011;36882;27.680;85.304;2022-10-14T14:29:24;29.10;;;17.50;;
50906;SDS011;36882;27.680;85.304;2022-10-14T14:31:56;28.52;;;15.85;;
50906;SDS011;36882;27.680;85.304;2022-10-14T14:34:34;23.05;;;13.63;;
50906;SDS011;36882;27.680;85.304;2022-10-14T14:37:06;24.20;;;14.57;;
50906;SDS011;36882;27.680;85.304;2022-10-14T14:42:52;27.10;;;13.30;;
50906;SDS011;36882;27.680;85.304;2022-10-14T14:45:26;23.20;;;14.25;;
50906;SDS011;36882;27.680;85.304;2022-10-14T14:48:02;18.15;;;13.10;;
50906;SDS011;36882;27.680;85.304;2022-10-14T14:50:36;23.63;;;15.73;;
50906;SDS011;36882;27.680;85.304;2022-10-14T14:53:12;22.92;;;16.58;;
50906;SDS011;36882;27.680;85.304;2022-10-14T14:55:56;28.15;;;17.70;;
50906;SDS011;36882;27.680;85.304;2022-10-14T14:58:35;32.33;;;18.70;;
50906;SDS011;36882;27.680;85.304;2022-10-14T15:01:21;29.67;;;18.15;;
50906;SDS011;36882;27.680;85.304;2022-10-14T15:03:57;43.63;;;25.38;;
50906;SDS011;36882;27.680;85.304;2022-10-14T15:06:41;31.02;;;23.25;;
50906;SDS011;36882;27.680;85.304;2022-10-14T15:09:21;32.53;;;21.77;;
50906;SDS011;36882;27.680;85.304;2022-10-14T15:12:14;25.20;;;17.27;;
50906;SDS011;36882;27.680;85.304;2022-10-14T15:14:53;23.85;;;14.60;;
50906;SDS011;36882;27.680;85.304;2022-10-14T15:17:31;29.25;;;14.65;;
50906;SDS011;36882;27.680;85.304;2022-10-14T15:22:57;23.95;;;14.18;;
50906;SDS011;36882;27.680;85.304;2022-10-14T15:25:29;25.95;;;15.15;;
50906;SDS011;36882;27.680;85.304;2022-10-14T15:28:00;23.77;;;18.10;;
50906;SDS011;36882;27.680;85.304;2022-10-14T15:33:25;23.05;;;16.08;;
50906;SDS011;36882;27.680;85.304;2022-10-14T15:35:57;36.95;;;18.42;;
50906;SDS011;36882;27.680;85.304;2022-10-14T15:38:29;30.25;;;17.20;;
50906;SDS011;36882;27.680;85.304;2022-10-14T15:40:59;24.95;;;15.60;;
50906;SDS011;36882;27.680;85.304;2022-10-14T15:43:32;23.77;;;15.48;;
50906;SDS011;36882;27.680;85.304;2022-10-14T15:46:03;25.38;;;16.98;;
50906;SDS011;36882;27.680;85.304;2022-10-14T15:48:51;29.42;;;16.02;;
50906;SDS011;36882;27.680;85.304;2022-10-14T15:51:24;28.08;;;14.65;;
50906;SDS011;36882;27.680;85.304;2022-10-14T15:53:57;27.70;;;15.85;;
50906;SDS011;36882;27.680;85.304;2022-10-14T15:56:28;24.20;;;14.05;;
50906;SDS011;36882;27.680;85.304;2022-10-14T15:58:58;23.48;;;14.07;;
50906;SDS011;36882;27.680;85.304;2022-10-14T16:01:27;18.25;;;12.73;;
50906;SDS011;36882;27.680;85.304;2022-10-14T16:03:58;25.30;;;14.07;;
50906;SDS011;36882;27.680;85.304;2022-10-14T16:06:29;18.10;;;12.52;;
50906;SDS011;36882;27.680;85.304;2022-10-14T16:08:59;27.83;;;14.05;;
50906;SDS011;36882;27.680;85.304;2022-10-14T16:13:59;22.80;;;12.70;;
50906;SDS011;36882;27.680;85.304;2022-10-14T16:16:33;23.08;;;15.80;;
50906;SDS011;36882;27.680;85.304;2022-10-14T16:19:08;23.33;;;16.25;;
50906;SDS011;36882;27.680;85.304;2022-10-14T16:21:38;37.25;;;20.90;;
50906;SDS011;36882;27.680;85.304;2022-10-14T16:24:13;30.67;;;19.38;;
50906;SDS011;36882;27.680;85.304;2022-10-14T16:26:46;41.25;;;18.02;;
50906;SDS011;36882;27.680;85.304;2022-10-14T16:29:17;42.25;;;22.58;;
50906;SDS011;36882;27.680;85.304;2022-10-14T16:31:48;42.75;;;24.15;;
50906;SDS011;36882;27.680;85.304;2022-10-14T16:34:20;46.97;;;23.77;;
50906;SDS011;36882;27.680;85.304;2022-10-14T16:36:50;39.83;;;24.90;;
50906;SDS011;36882;27.680;85.304;2022-10-14T16:41:50;40.17;;;21.92;;
50906;SDS011;36882;27.680;85.304;2022-10-14T16:44:20;46.25;;;19.80;;
50906;SDS011;36882;27.680;85.304;2022-10-14T16:46:52;33.92;;;18.40;;
50906;SDS011;36882;27.680;85.304;2022-10-14T16:49:44;40.38;;;20.48;;
50906;SDS011;36882;27.680;85.304;2022-10-14T16:52:16;45.95;;;18.42;;
50906;SDS011;36882;27.680;85.304;2022-10-14T16:54:47;45.30;;;20.45;;
50906;SDS011;36882;27.680;85.304;2022-10-14T16:57:18;59.78;;;38.08;;
50906;SDS011;36882;27.680;85.304;2022-10-14T16:59:48;53.22;;;30.65;;
50906;SDS011;36882;27.680;85.304;2022-10-14T17:02:18;59.08;;;34.65;;
50906;SDS011;36882;27.680;85.304;2022-10-14T17:04:48;58.90;;;36.10;;